sensor_id;sensor_type;location;lat;lon;timestamp;P1;durP1;ratioP1;P2;durP2;ratioP2
39322;SDS011;25036;53.638;10.134;2023-07-02T00:00:59;3.87;;;1.00;;
39322;SDS011;25036;53.638;10.134;2023-07-02T00:01:59;4.68;;;1.45;;
39322;SDS011;25036;53.638;10.134;2023-07-02T00:03:00;4.73;;;1.23;;
39322;SDS011;25036;53.638;10.134;2023-07-02T00:04:00;2.50;;;1.05;;
39322;SDS011;25036;53.638;10.134;2023-07-02T00:05:01;6.10;;;1.00;;
39322;SDS011;25036;53.638;10.134;2023-07-02T00:06:01;5.32;;;1.20;;
39322;SDS011;25036;53.638;10.134;2023-07-02T00:07:01;3.60;;;1.10;;
39322;SDS011;25036;53.638;10.134;2023-07-02T00:08:01;3.40;;;0.85;;
39322;SDS011;25036;53.638;10.134;2023-07-02T00:09:01;5.13;;;1.10;;
39322;SDS011;25036;53.638;10.134;2023-07-02T00:10:02;2.65;;;0.90;;
39322;SDS011;25036;53.638;10.134;2023-07-02T00:11:02;2.20;;;1.13;;
39322;SDS011;25036;53.638;10.134;2023-07-02T00:12:02;4.53;;;1.10;;
39322;SDS011;25036;53.638;10.134;2023-07-02T00:13:02;3.03;;;1.00;;
39322;SDS011;25036;53.638;10.134;2023-07-02T00:14:02;2.93;;;1.00;;
39322;SDS011;25036;53.638;10.134;2023-07-02T00:15:03;3.90;;;1.10;;
39322;SDS011;25036;53.638;10.134;2023-07-02T00:16:03;2.53;;;1.23;;
39322;SDS011;25036;53.638;10.134;2023-07-02T00:17:03;4.32;;;1.00;;
39322;SDS011;25036;53.638;10.134;2023-07-02T00:18:04;4.63;;;1.20;;
39322;SDS011;25036;53.638;10.134;2023-07-02T00:19:04;4.33;;;1.17;;
39322;SDS011;25036;53.638;10.134;2023-07-02T00:20:04;3.85;;;1.40;;
39322;SDS011;25036;53.638;10.134;2023-07-02T00:21:09;4.75;;;1.15;;
39322;SDS011;25036;53.638;10.134;2023-07-02T00:22:13;3.03;;;1.05;;
39322;SDS011;25036;53.638;10.134;2023-07-02T00:23:15;6.13;;;1.23;;
39322;SDS011;25036;53.638;10.134;2023-07-02T00:24:15;4.37;;;1.00;;
39322;SDS011;25036;53.638;10.134;2023-07-02T00:25:16;9.20;;;1.30;;
39322;SDS011;25036;53.638;10.134;2023-07-02T00:26:16;4.93;;;1.23;;
39322;SDS011;25036;53.638;10.134;2023-07-02T00:27:16;2.23;;;1.10;;
39322;SDS011;25036;53.638;10.134;2023-07-02T00:28:16;2.27;;;1.10;;
39322;SDS011;25036;53.638;10.134;2023-07-02T00:29:17;3.60;;;1.02;;
39322;SDS011;25036;53.638;10.134;2023-07-02T00:30:17;2.65;;;1.10;;
39322;SDS011;25036;53.638;10.134;2023-07-02T00:31:18;3.37;;;1.40;;
39322;SDS011;25036;53.638;10.134;2023-07-02T00:32:18;2.30;;;1.30;;
39322;SDS011;25036;53.638;10.134;2023-07-02T00:33:18;2.73;;;1.30;;
39322;SDS011;25036;53.638;10.134;2023-07-02T00:34:18;3.45;;;1.17;;
39322;SDS011;25036;53.638;10.134;2023-07-02T00:35:19;3.90;;;0.90;;
39322;SDS011;25036;53.638;10.134;2023-07-02T00:36:19;3.30;;;1.10;;
39322;SDS011;25036;53.638;10.134;2023-07-02T00:37:19;4.07;;;1.30;;
39322;SDS011;25036;53.638;10.134;2023-07-02T00:38:19;3.17;;;1.10;;
39322;SDS011;25036;53.638;10.134;2023-07-02T00:39:19;2.60;;;1.20;;
39322;SDS011;25036;53.638;10.134;2023-07-02T00:40:19;1.83;;;1.00;;
39322;SDS011;25036;53.638;10.134;2023-07-02T00:41:20;1.77;;;1.10;;
39322;SDS011;25036;53.638;10.134;2023-07-02T00:42:20;2.50;;;0.97;;
39322;SDS011;25036;53.638;10.134;2023-07-02T00:43:20;4.33;;;1.20;;
39322;SDS011;25036;53.638;10.134;2023-07-02T00:44:20;5.13;;;1.53;;
39322;SDS011;25036;53.638;10.134;2023-07-02T00:45:20;4.22;;;1.67;;
39322;SDS011;25036;53.638;10.134;2023-07-02T00:46:21;3.53;;;1.10;;
39322;SDS011;25036;53.638;10.134;2023-07-02T00:47:21;3.92;;;1.30;;
39322;SDS011;25036;53.638;10.134;2023-07-02T00:48:21;3.33;;;1.00;;
39322;SDS011;25036;53.638;10.134;2023-07-02T00:49:22;5.23;;;1.40;;
39322;SDS011;25036;53.638;10.134;2023-07-02T00:50:22;2.50;;;1.15;;
39322;SDS011;25036;53.638;10.134;2023-07-02T00:51:23;3.63;;;1.08;;
39322;SDS011;25036;53.638;10.134;2023-07-02T00:52:24;2.85;;;1.13;;
39322;SDS011;25036;53.638;10.134;2023-07-02T00:53:25;1.98;;;1.10;;
39322;SDS011;25036;53.638;10.134;2023-07-02T00:54:30;4.00;;;1.33;;
39322;SDS011;25036;53.638;10.134;2023-07-02T00:55:30;2.90;;;1.50;;
39322;SDS011;25036;53.638;10.134;2023-07-02T00:56:30;2.30;;;1.10;;
39322;SDS011;25036;53.638;10.134;2023-07-02T00:57:30;2.87;;;1.30;;
39322;SDS011;25036;53.638;10.134;2023-07-02T00:58:30;4.95;;;1.25;;
39322;SDS011;25036;53.638;10.134;2023-07-02T00:59:31;5.53;;;1.30;;
39322;SDS011;25036;53.638;10.134;2023-07-02T01:00:34;2.28;;;1.20;;
39322;SDS011;25036;53.638;10.134;2023-07-02T01:01:34;3.40;;;1.17;;
39322;SDS011;25036;53.638;10.134;2023-07-02T01:02:37;2.50;;;1.10;;
39322;SDS011;25036;53.638;10.134;2023-07-02T01:03:38;2.08;;;1.10;;
39322;SDS011;25036;53.638;10.134;2023-07-02T01:04:39;1.60;;;0.95;;
39322;SDS011;25036;53.638;10.134;2023-07-02T01:05:39;2.35;;;1.30;;
39322;SDS011;25036;53.638;10.134;2023-07-02T01:06:41;3.40;;;1.10;;
39322;SDS011;25036;53.638;10.134;2023-07-02T01:07:41;6.33;;;1.40;;
39322;SDS011;25036;53.638;10.134;2023-07-02T01:08:41;2.00;;;1.00;;
39322;SDS011;25036;53.638;10.134;2023-07-02T01:09:41;2.57;;;1.13;;
39322;SDS011;25036;53.638;10.134;2023-07-02T01:10:41;4.83;;;1.30;;
39322;SDS011;25036;53.638;10.134;2023-07-02T01:11:46;2.63;;;1.40;;
39322;SDS011;25036;53.638;10.134;2023-07-02T01:12:50;3.22;;;1.25;;
39322;SDS011;25036;53.638;10.134;2023-07-02T01:13:51;2.45;;;1.35;;
39322;SDS011;25036;53.638;10.134;2023-07-02T01:14:53;4.38;;;1.35;;
39322;SDS011;25036;53.638;10.134;2023-07-02T01:15:56;5.00;;;1.13;;
39322;SDS011;25036;53.638;10.134;2023-07-02T01:16:56;3.37;;;1.30;;
39322;SDS011;25036;53.638;10.134;2023-07-02T01:17:57;1.88;;;1.20;;
39322;SDS011;25036;53.638;10.134;2023-07-02T01:18:57;3.92;;;1.20;;
39322;SDS011;25036;53.638;10.134;2023-07-02T01:19:57;2.92;;;1.30;;
39322;SDS011;25036;53.638;10.134;2023-07-02T01:20:58;4.60;;;1.48;;
39322;SDS011;25036;53.638;10.134;2023-07-02T01:22:01;4.18;;;1.15;;
39322;SDS011;25036;53.638;10.134;2023-07-02T01:23:01;4.13;;;1.38;;
39322;SDS011;25036;53.638;10.134;2023-07-02T01:24:02;1.70;;;1.02;;
39322;SDS011;25036;53.638;10.134;2023-07-02T01:25:03;1.95;;;1.23;;
39322;SDS011;25036;53.638;10.134;2023-07-02T01:26:03;6.43;;;1.70;;
39322;SDS011;25036;53.638;10.134;2023-07-02T01:27:03;4.20;;;1.50;;
39322;SDS011;25036;53.638;10.134;2023-07-02T01:28:03;3.95;;;1.35;;
39322;SDS011;25036;53.638;10.134;2023-07-02T01:29:13;3.65;;;1.30;;
39322;SDS011;25036;53.638;10.134;2023-07-02T01:30:14;4.72;;;1.83;;
39322;SDS011;25036;53.638;10.134;2023-07-02T01:31:14;4.50;;;1.17;;
39322;SDS011;25036;53.638;10.134;2023-07-02T01:32:14;5.27;;;1.27;;
39322;SDS011;25036;53.638;10.134;2023-07-02T01:33:14;3.47;;;1.40;;
39322;SDS011;25036;53.638;10.134;2023-07-02T01:34:14;3.80;;;1.30;;
39322;SDS011;25036;53.638;10.134;2023-07-02T01:35:14;4.22;;;1.40;;
39322;SDS011;25036;53.638;10.134;2023-07-02T01:36:16;3.30;;;1.10;;
39322;SDS011;25036;53.638;10.134;2023-07-02T01:37:16;3.30;;;1.20;;
39322;SDS011;25036;53.638;10.134;2023-07-02T01:38:19;3.22;;;1.35;;
39322;SDS011;25036;53.638;10.134;2023-07-02T01:39:19;5.57;;;1.67;;
39322;SDS011;25036;53.638;10.134;2023-07-02T01:40:19;5.73;;;1.60;;
39322;SDS011;25036;53.638;10.134;2023-07-02T01:41:19;2.53;;;1.47;;
39322;SDS011;25036;53.638;10.134;2023-07-02T01:42:19;3.83;;;1.50;;
39322;SDS011;25036;53.638;10.134;2023-07-02T01:43:20;3.83;;;1.35;;
39322;SDS011;25036;53.638;10.134;2023-07-02T01:44:20;3.00;;;1.27;;
39322;SDS011;25036;53.638;10.134;2023-07-02T01:45:20;4.60;;;1.63;;
39322;SDS011;25036;53.638;10.134;2023-07-02T01:46:21;4.10;;;1.40;;
39322;SDS011;25036;53.638;10.134;2023-07-02T01:47:21;5.10;;;1.40;;
39322;SDS011;25036;53.638;10.134;2023-07-02T01:48:21;6.10;;;1.30;;
39322;SDS011;25036;53.638;10.134;2023-07-02T01:49:21;4.00;;;1.60;;
39322;SDS011;25036;53.638;10.134;2023-07-02T01:50:21;4.87;;;1.50;;
39322;SDS011;25036;53.638;10.134;2023-07-02T01:51:21;3.90;;;2.03;;
39322;SDS011;25036;53.638;10.134;2023-07-02T01:52:21;2.93;;;1.50;;
39322;SDS011;25036;53.638;10.134;2023-07-02T01:53:21;2.90;;;1.20;;
39322;SDS011;25036;53.638;10.134;2023-07-02T01:54:23;4.70;;;1.60;;
39322;SDS011;25036;53.638;10.134;2023-07-02T01:55:23;4.47;;;1.40;;
39322;SDS011;25036;53.638;10.134;2023-07-02T01:56:23;3.00;;;1.40;;
39322;SDS011;25036;53.638;10.134;2023-07-02T01:57:23;6.20;;;2.13;;
39322;SDS011;25036;53.638;10.134;2023-07-02T01:58:23;1.47;;;1.00;;
39322;SDS011;25036;53.638;10.134;2023-07-02T01:59:24;3.77;;;1.30;;
39322;SDS011;25036;53.638;10.134;2023-07-02T02:00:24;4.00;;;1.38;;
39322;SDS011;25036;53.638;10.134;2023-07-02T02:01:25;4.65;;;1.52;;
39322;SDS011;25036;53.638;10.134;2023-07-02T02:02:25;3.33;;;1.60;;
39322;SDS011;25036;53.638;10.134;2023-07-02T02:03:25;6.22;;;2.13;;
39322;SDS011;25036;53.638;10.134;2023-07-02T02:04:25;3.47;;;1.50;;
39322;SDS011;25036;53.638;10.134;2023-07-02T02:05:25;5.27;;;1.73;;
39322;SDS011;25036;53.638;10.134;2023-07-02T02:06:25;2.20;;;1.40;;
39322;SDS011;25036;53.638;10.134;2023-07-02T02:07:26;2.47;;;1.30;;
39322;SDS011;25036;53.638;10.134;2023-07-02T02:08:26;4.68;;;1.58;;
39322;SDS011;25036;53.638;10.134;2023-07-02T02:09:26;3.50;;;1.50;;
39322;SDS011;25036;53.638;10.134;2023-07-02T02:10:28;5.10;;;1.70;;
39322;SDS011;25036;53.638;10.134;2023-07-02T02:11:28;4.67;;;1.63;;
39322;SDS011;25036;53.638;10.134;2023-07-02T02:12:28;6.33;;;2.00;;
39322;SDS011;25036;53.638;10.134;2023-07-02T02:13:30;3.42;;;1.50;;
39322;SDS011;25036;53.638;10.134;2023-07-02T02:14:30;4.17;;;1.80;;
39322;SDS011;25036;53.638;10.134;2023-07-02T02:15:30;6.73;;;1.60;;
39322;SDS011;25036;53.638;10.134;2023-07-02T02:16:30;3.83;;;1.60;;
39322;SDS011;25036;53.638;10.134;2023-07-02T02:17:30;5.20;;;1.53;;
39322;SDS011;25036;53.638;10.134;2023-07-02T02:18:30;3.03;;;1.40;;
39322;SDS011;25036;53.638;10.134;2023-07-02T02:19:31;3.87;;;1.70;;
39322;SDS011;25036;53.638;10.134;2023-07-02T02:20:31;3.53;;;1.70;;
39322;SDS011;25036;53.638;10.134;2023-07-02T02:21:31;2.90;;;1.50;;
39322;SDS011;25036;53.638;10.134;2023-07-02T02:22:31;5.57;;;2.00;;
39322;SDS011;25036;53.638;10.134;2023-07-02T02:23:31;4.17;;;1.80;;
39322;SDS011;25036;53.638;10.134;2023-07-02T02:24:31;4.23;;;1.63;;
39322;SDS011;25036;53.638;10.134;2023-07-02T02:25:31;5.57;;;2.63;;
39322;SDS011;25036;53.638;10.134;2023-07-02T02:26:31;5.83;;;1.50;;
39322;SDS011;25036;53.638;10.134;2023-07-02T02:27:32;5.10;;;1.47;;
39322;SDS011;25036;53.638;10.134;2023-07-02T02:28:32;6.72;;;2.28;;
39322;SDS011;25036;53.638;10.134;2023-07-02T02:29:32;4.67;;;1.63;;
39322;SDS011;25036;53.638;10.134;2023-07-02T02:30:32;3.25;;;1.98;;
39322;SDS011;25036;53.638;10.134;2023-07-02T02:31:32;4.97;;;1.67;;
39322;SDS011;25036;53.638;10.134;2023-07-02T02:32:32;3.28;;;1.70;;
39322;SDS011;25036;53.638;10.134;2023-07-02T02:33:33;2.77;;;1.77;;
39322;SDS011;25036;53.638;10.134;2023-07-02T02:34:33;4.00;;;1.65;;
39322;SDS011;25036;53.638;10.134;2023-07-02T02:35:33;3.60;;;1.70;;
39322;SDS011;25036;53.638;10.134;2023-07-02T02:36:33;5.63;;;2.00;;
39322;SDS011;25036;53.638;10.134;2023-07-02T02:37:35;3.77;;;1.77;;
39322;SDS011;25036;53.638;10.134;2023-07-02T02:38:36;4.72;;;1.70;;
39322;SDS011;25036;53.638;10.134;2023-07-02T02:39:37;4.63;;;1.77;;
39322;SDS011;25036;53.638;10.134;2023-07-02T02:40:37;7.07;;;2.07;;
39322;SDS011;25036;53.638;10.134;2023-07-02T02:41:37;2.80;;;1.63;;
39322;SDS011;25036;53.638;10.134;2023-07-02T02:42:38;2.85;;;1.67;;
39322;SDS011;25036;53.638;10.134;2023-07-02T02:43:41;3.65;;;1.73;;
39322;SDS011;25036;53.638;10.134;2023-07-02T02:44:42;4.47;;;1.80;;
39322;SDS011;25036;53.638;10.134;2023-07-02T02:45:42;4.03;;;1.90;;
39322;SDS011;25036;53.638;10.134;2023-07-02T02:46:43;5.10;;;2.00;;
39322;SDS011;25036;53.638;10.134;2023-07-02T02:47:43;4.00;;;1.93;;
39322;SDS011;25036;53.638;10.134;2023-07-02T02:48:43;2.97;;;1.73;;
39322;SDS011;25036;53.638;10.134;2023-07-02T02:49:43;4.80;;;1.70;;
39322;SDS011;25036;53.638;10.134;2023-07-02T02:50:43;4.25;;;1.55;;
39322;SDS011;25036;53.638;10.134;2023-07-02T02:51:43;6.00;;;1.80;;
39322;SDS011;25036;53.638;10.134;2023-07-02T02:52:43;4.83;;;2.40;;
39322;SDS011;25036;53.638;10.134;2023-07-02T02:53:43;4.17;;;1.53;;
39322;SDS011;25036;53.638;10.134;2023-07-02T02:54:45;4.57;;;1.83;;
39322;SDS011;25036;53.638;10.134;2023-07-02T02:55:45;5.47;;;1.90;;
39322;SDS011;25036;53.638;10.134;2023-07-02T02:56:45;2.40;;;1.70;;
39322;SDS011;25036;53.638;10.134;2023-07-02T02:57:45;2.97;;;1.70;;
39322;SDS011;25036;53.638;10.134;2023-07-02T02:58:45;5.20;;;2.00;;
39322;SDS011;25036;53.638;10.134;2023-07-02T02:59:46;3.42;;;2.05;;
39322;SDS011;25036;53.638;10.134;2023-07-02T03:00:46;3.80;;;1.88;;
39322;SDS011;25036;53.638;10.134;2023-07-02T03:01:46;6.28;;;2.17;;
39322;SDS011;25036;53.638;10.134;2023-07-02T03:02:46;3.77;;;2.00;;
39322;SDS011;25036;53.638;10.134;2023-07-02T03:03:46;3.83;;;2.25;;
39322;SDS011;25036;53.638;10.134;2023-07-02T03:04:47;5.27;;;2.07;;
39322;SDS011;25036;53.638;10.134;2023-07-02T03:05:49;4.65;;;2.15;;
39322;SDS011;25036;53.638;10.134;2023-07-02T03:06:49;4.00;;;2.00;;
39322;SDS011;25036;53.638;10.134;2023-07-02T03:07:50;4.38;;;2.03;;
39322;SDS011;25036;53.638;10.134;2023-07-02T03:08:50;6.32;;;2.03;;
39322;SDS011;25036;53.638;10.134;2023-07-02T03:09:50;6.40;;;1.90;;
39322;SDS011;25036;53.638;10.134;2023-07-02T03:10:50;3.90;;;1.90;;
39322;SDS011;25036;53.638;10.134;2023-07-02T03:11:50;3.30;;;2.00;;
39322;SDS011;25036;53.638;10.134;2023-07-02T03:12:51;3.77;;;1.77;;
39322;SDS011;25036;53.638;10.134;2023-07-02T03:13:51;5.00;;;1.80;;
39322;SDS011;25036;53.638;10.134;2023-07-02T03:14:51;6.73;;;1.70;;
39322;SDS011;25036;53.638;10.134;2023-07-02T03:15:54;4.03;;;2.03;;
39322;SDS011;25036;53.638;10.134;2023-07-02T03:16:54;4.30;;;1.93;;
39322;SDS011;25036;53.638;10.134;2023-07-02T03:17:54;5.80;;;2.17;;
39322;SDS011;25036;53.638;10.134;2023-07-02T03:18:54;5.65;;;2.50;;
39322;SDS011;25036;53.638;10.134;2023-07-02T03:19:55;4.57;;;2.07;;
39322;SDS011;25036;53.638;10.134;2023-07-02T03:20:55;6.27;;;2.20;;
39322;SDS011;25036;53.638;10.134;2023-07-02T03:21:55;2.75;;;2.25;;
39322;SDS011;25036;53.638;10.134;2023-07-02T03:22:55;5.50;;;2.33;;
39322;SDS011;25036;53.638;10.134;2023-07-02T03:23:55;4.43;;;2.27;;
39322;SDS011;25036;53.638;10.134;2023-07-02T03:24:55;4.30;;;2.07;;
39322;SDS011;25036;53.638;10.134;2023-07-02T03:25:55;5.00;;;2.08;;
39322;SDS011;25036;53.638;10.134;2023-07-02T03:26:56;3.70;;;2.20;;
39322;SDS011;25036;53.638;10.134;2023-07-02T03:27:56;3.05;;;1.88;;
39322;SDS011;25036;53.638;10.134;2023-07-02T03:28:56;4.57;;;2.10;;
39322;SDS011;25036;53.638;10.134;2023-07-02T03:29:56;6.37;;;2.53;;
39322;SDS011;25036;53.638;10.134;2023-07-02T03:30:56;2.60;;;1.83;;
39322;SDS011;25036;53.638;10.134;2023-07-02T03:31:56;5.37;;;2.67;;
39322;SDS011;25036;53.638;10.134;2023-07-02T03:32:57;5.05;;;2.15;;
39322;SDS011;25036;53.638;10.134;2023-07-02T03:33:57;4.90;;;2.05;;
39322;SDS011;25036;53.638;10.134;2023-07-02T03:34:57;4.83;;;2.13;;
39322;SDS011;25036;53.638;10.134;2023-07-02T03:35:58;6.43;;;3.10;;
39322;SDS011;25036;53.638;10.134;2023-07-02T03:36:58;6.50;;;2.73;;
39322;SDS011;25036;53.638;10.134;2023-07-02T03:37:58;5.83;;;2.40;;
39322;SDS011;25036;53.638;10.134;2023-07-02T03:38:58;4.83;;;2.17;;
39322;SDS011;25036;53.638;10.134;2023-07-02T03:39:58;4.80;;;1.90;;
39322;SDS011;25036;53.638;10.134;2023-07-02T03:40:59;6.47;;;2.30;;
39322;SDS011;25036;53.638;10.134;2023-07-02T03:41:59;3.33;;;2.03;;
39322;SDS011;25036;53.638;10.134;2023-07-02T03:42:59;5.93;;;2.10;;
39322;SDS011;25036;53.638;10.134;2023-07-02T03:43:59;4.88;;;2.05;;
39322;SDS011;25036;53.638;10.134;2023-07-02T03:44:59;5.87;;;2.27;;
39322;SDS011;25036;53.638;10.134;2023-07-02T03:45:59;5.87;;;2.17;;
39322;SDS011;25036;53.638;10.134;2023-07-02T03:46:59;5.80;;;2.50;;
39322;SDS011;25036;53.638;10.134;2023-07-02T03:48:00;5.30;;;2.50;;
39322;SDS011;25036;53.638;10.134;2023-07-02T03:49:00;5.57;;;2.40;;
39322;SDS011;25036;53.638;10.134;2023-07-02T03:50:01;5.43;;;2.25;;
39322;SDS011;25036;53.638;10.134;2023-07-02T03:51:01;4.67;;;1.90;;
39322;SDS011;25036;53.638;10.134;2023-07-02T03:52:01;5.40;;;2.33;;
39322;SDS011;25036;53.638;10.134;2023-07-02T03:53:01;6.33;;;2.70;;
39322;SDS011;25036;53.638;10.134;2023-07-02T03:54:01;5.40;;;2.17;;
39322;SDS011;25036;53.638;10.134;2023-07-02T03:55:02;5.00;;;2.13;;
39322;SDS011;25036;53.638;10.134;2023-07-02T03:56:02;6.85;;;2.45;;
39322;SDS011;25036;53.638;10.134;2023-07-02T03:57:02;4.80;;;2.38;;
39322;SDS011;25036;53.638;10.134;2023-07-02T03:58:03;5.25;;;2.55;;
39322;SDS011;25036;53.638;10.134;2023-07-02T03:59:03;9.13;;;3.03;;
39322;SDS011;25036;53.638;10.134;2023-07-02T04:00:03;7.53;;;2.67;;
39322;SDS011;25036;53.638;10.134;2023-07-02T04:01:05;6.82;;;2.70;;
39322;SDS011;25036;53.638;10.134;2023-07-02T04:02:05;6.30;;;3.00;;
39322;SDS011;25036;53.638;10.134;2023-07-02T04:03:05;6.65;;;2.25;;
39322;SDS011;25036;53.638;10.134;2023-07-02T04:04:05;7.67;;;3.10;;
39322;SDS011;25036;53.638;10.134;2023-07-02T04:05:06;6.03;;;2.47;;
39322;SDS011;25036;53.638;10.134;2023-07-02T04:06:06;5.55;;;2.50;;
39322;SDS011;25036;53.638;10.134;2023-07-02T04:07:06;9.35;;;3.08;;
39322;SDS011;25036;53.638;10.134;2023-07-02T04:08:06;5.68;;;2.50;;
39322;SDS011;25036;53.638;10.134;2023-07-02T04:09:06;7.17;;;3.23;;
39322;SDS011;25036;53.638;10.134;2023-07-02T04:10:07;6.63;;;2.50;;
39322;SDS011;25036;53.638;10.134;2023-07-02T04:11:07;6.35;;;2.83;;
39322;SDS011;25036;53.638;10.134;2023-07-02T04:12:07;6.27;;;2.50;;
39322;SDS011;25036;53.638;10.134;2023-07-02T04:13:07;5.22;;;2.78;;
39322;SDS011;25036;53.638;10.134;2023-07-02T04:14:08;7.87;;;3.00;;
39322;SDS011;25036;53.638;10.134;2023-07-02T04:15:08;8.33;;;2.60;;
39322;SDS011;25036;53.638;10.134;2023-07-02T04:16:08;5.85;;;2.83;;
39322;SDS011;25036;53.638;10.134;2023-07-02T04:17:08;7.80;;;3.45;;
39322;SDS011;25036;53.638;10.134;2023-07-02T04:18:08;6.13;;;2.67;;
39322;SDS011;25036;53.638;10.134;2023-07-02T04:19:09;8.17;;;2.90;;
39322;SDS011;25036;53.638;10.134;2023-07-02T04:20:09;7.82;;;3.15;;
39322;SDS011;25036;53.638;10.134;2023-07-02T04:21:10;8.27;;;3.22;;
39322;SDS011;25036;53.638;10.134;2023-07-02T04:22:10;8.57;;;3.23;;
39322;SDS011;25036;53.638;10.134;2023-07-02T04:23:10;8.40;;;3.23;;
39322;SDS011;25036;53.638;10.134;2023-07-02T04:24:10;8.03;;;3.00;;
39322;SDS011;25036;53.638;10.134;2023-07-02T04:25:11;7.83;;;3.10;;
39322;SDS011;25036;53.638;10.134;2023-07-02T04:26:15;9.07;;;3.55;;
39322;SDS011;25036;53.638;10.134;2023-07-02T04:27:15;8.82;;;3.08;;
39322;SDS011;25036;53.638;10.134;2023-07-02T04:28:17;9.13;;;3.58;;
39322;SDS011;25036;53.638;10.134;2023-07-02T04:29:17;8.73;;;4.07;;
39322;SDS011;25036;53.638;10.134;2023-07-02T04:30:17;9.10;;;4.40;;
39322;SDS011;25036;53.638;10.134;2023-07-02T04:31:17;8.85;;;3.17;;
39322;SDS011;25036;53.638;10.134;2023-07-02T04:32:19;7.72;;;3.15;;
39322;SDS011;25036;53.638;10.134;2023-07-02T04:33:19;8.10;;;3.10;;
39322;SDS011;25036;53.638;10.134;2023-07-02T04:34:19;7.13;;;3.03;;
39322;SDS011;25036;53.638;10.134;2023-07-02T04:35:21;5.45;;;3.00;;
39322;SDS011;25036;53.638;10.134;2023-07-02T04:36:21;8.98;;;3.00;;
39322;SDS011;25036;53.638;10.134;2023-07-02T04:37:22;6.68;;;3.17;;
39322;SDS011;25036;53.638;10.134;2023-07-02T04:38:22;8.67;;;3.23;;
39322;SDS011;25036;53.638;10.134;2023-07-02T04:39:22;7.70;;;3.23;;
39322;SDS011;25036;53.638;10.134;2023-07-02T04:40:22;8.47;;;3.40;;
39322;SDS011;25036;53.638;10.134;2023-07-02T04:41:22;9.77;;;3.58;;
39322;SDS011;25036;53.638;10.134;2023-07-02T04:42:23;9.33;;;4.20;;
39322;SDS011;25036;53.638;10.134;2023-07-02T04:43:27;12.45;;;3.85;;
39322;SDS011;25036;53.638;10.134;2023-07-02T04:44:29;10.18;;;3.63;;
39322;SDS011;25036;53.638;10.134;2023-07-02T04:45:29;11.38;;;4.57;;
39322;SDS011;25036;53.638;10.134;2023-07-02T04:46:31;10.13;;;3.78;;
39322;SDS011;25036;53.638;10.134;2023-07-02T04:47:32;9.63;;;4.13;;
39322;SDS011;25036;53.638;10.134;2023-07-02T04:48:32;7.33;;;3.80;;
39322;SDS011;25036;53.638;10.134;2023-07-02T04:49:32;8.83;;;4.07;;
39322;SDS011;25036;53.638;10.134;2023-07-02T04:50:32;8.90;;;3.27;;
39322;SDS011;25036;53.638;10.134;2023-07-02T04:51:32;11.07;;;4.73;;
39322;SDS011;25036;53.638;10.134;2023-07-02T04:52:32;9.33;;;3.70;;
39322;SDS011;25036;53.638;10.134;2023-07-02T04:53:32;8.30;;;3.40;;
39322;SDS011;25036;53.638;10.134;2023-07-02T04:54:33;8.68;;;3.47;;
39322;SDS011;25036;53.638;10.134;2023-07-02T04:55:33;10.73;;;4.33;;
39322;SDS011;25036;53.638;10.134;2023-07-02T04:56:33;6.50;;;3.63;;
39322;SDS011;25036;53.638;10.134;2023-07-02T04:57:33;12.80;;;4.43;;
39322;SDS011;25036;53.638;10.134;2023-07-02T04:58:33;7.93;;;3.90;;
39322;SDS011;25036;53.638;10.134;2023-07-02T04:59:33;9.23;;;4.53;;
39322;SDS011;25036;53.638;10.134;2023-07-02T05:00:33;13.90;;;4.20;;
39322;SDS011;25036;53.638;10.134;2023-07-02T05:01:34;11.40;;;4.50;;
39322;SDS011;25036;53.638;10.134;2023-07-02T05:02:34;9.20;;;4.67;;
39322;SDS011;25036;53.638;10.134;2023-07-02T05:03:34;10.80;;;3.83;;
39322;SDS011;25036;53.638;10.134;2023-07-02T05:04:35;9.48;;;3.63;;
39322;SDS011;25036;53.638;10.134;2023-07-02T05:05:35;10.70;;;4.10;;
39322;SDS011;25036;53.638;10.134;2023-07-02T05:06:35;9.33;;;4.43;;
39322;SDS011;25036;53.638;10.134;2023-07-02T05:07:35;12.30;;;4.03;;
39322;SDS011;25036;53.638;10.134;2023-07-02T05:08:35;12.73;;;4.70;;
39322;SDS011;25036;53.638;10.134;2023-07-02T05:09:36;10.02;;;3.58;;
39322;SDS011;25036;53.638;10.134;2023-07-02T05:10:36;11.03;;;4.30;;
39322;SDS011;25036;53.638;10.134;2023-07-02T05:11:36;12.20;;;4.07;;
39322;SDS011;25036;53.638;10.134;2023-07-02T05:12:36;11.03;;;4.20;;
39322;SDS011;25036;53.638;10.134;2023-07-02T05:13:37;9.00;;;4.17;;
39322;SDS011;25036;53.638;10.134;2023-07-02T05:14:37;9.23;;;4.00;;
39322;SDS011;25036;53.638;10.134;2023-07-02T05:15:37;7.70;;;4.07;;
39322;SDS011;25036;53.638;10.134;2023-07-02T05:16:37;9.10;;;4.37;;
39322;SDS011;25036;53.638;10.134;2023-07-02T05:17:37;9.20;;;4.47;;
39322;SDS011;25036;53.638;10.134;2023-07-02T05:18:37;9.77;;;3.87;;
39322;SDS011;25036;53.638;10.134;2023-07-02T05:19:38;10.30;;;3.90;;
39322;SDS011;25036;53.638;10.134;2023-07-02T05:20:38;8.20;;;4.38;;
39322;SDS011;25036;53.638;10.134;2023-07-02T05:21:38;10.90;;;4.20;;
39322;SDS011;25036;53.638;10.134;2023-07-02T05:22:38;11.70;;;5.00;;
39322;SDS011;25036;53.638;10.134;2023-07-02T05:23:38;11.73;;;4.37;;
39322;SDS011;25036;53.638;10.134;2023-07-02T05:24:38;10.03;;;4.37;;
39322;SDS011;25036;53.638;10.134;2023-07-02T05:25:40;11.20;;;4.40;;
39322;SDS011;25036;53.638;10.134;2023-07-02T05:26:40;8.27;;;3.77;;
39322;SDS011;25036;53.638;10.134;2023-07-02T05:27:41;10.27;;;4.67;;
39322;SDS011;25036;53.638;10.134;2023-07-02T05:28:41;9.48;;;4.55;;
39322;SDS011;25036;53.638;10.134;2023-07-02T05:29:41;14.43;;;4.28;;
39322;SDS011;25036;53.638;10.134;2023-07-02T05:30:41;10.93;;;4.30;;
39322;SDS011;25036;53.638;10.134;2023-07-02T05:31:41;11.47;;;4.53;;
39322;SDS011;25036;53.638;10.134;2023-07-02T05:32:42;12.67;;;4.37;;
39322;SDS011;25036;53.638;10.134;2023-07-02T05:33:42;12.40;;;4.63;;
39322;SDS011;25036;53.638;10.134;2023-07-02T05:34:42;10.43;;;4.70;;
39322;SDS011;25036;53.638;10.134;2023-07-02T05:35:42;10.03;;;4.77;;
39322;SDS011;25036;53.638;10.134;2023-07-02T05:36:42;12.27;;;4.30;;
39322;SDS011;25036;53.638;10.134;2023-07-02T05:37:42;12.27;;;5.35;;
39322;SDS011;25036;53.638;10.134;2023-07-02T05:38:43;13.27;;;4.93;;
39322;SDS011;25036;53.638;10.134;2023-07-02T05:39:43;12.13;;;5.00;;
39322;SDS011;25036;53.638;10.134;2023-07-02T05:40:43;11.93;;;4.95;;
39322;SDS011;25036;53.638;10.134;2023-07-02T05:41:43;14.70;;;4.82;;
39322;SDS011;25036;53.638;10.134;2023-07-02T05:42:43;13.13;;;5.07;;
39322;SDS011;25036;53.638;10.134;2023-07-02T05:43:44;13.15;;;5.40;;
39322;SDS011;25036;53.638;10.134;2023-07-02T05:44:44;15.00;;;5.50;;
39322;SDS011;25036;53.638;10.134;2023-07-02T05:45:44;13.07;;;5.20;;
39322;SDS011;25036;53.638;10.134;2023-07-02T05:46:44;11.43;;;5.20;;
39322;SDS011;25036;53.638;10.134;2023-07-02T05:47:44;12.23;;;4.80;;
39322;SDS011;25036;53.638;10.134;2023-07-02T05:48:45;13.70;;;5.57;;
39322;SDS011;25036;53.638;10.134;2023-07-02T05:49:45;9.07;;;4.27;;
39322;SDS011;25036;53.638;10.134;2023-07-02T05:50:45;14.43;;;4.93;;
39322;SDS011;25036;53.638;10.134;2023-07-02T05:51:45;12.00;;;5.63;;
39322;SDS011;25036;53.638;10.134;2023-07-02T05:52:45;20.42;;;6.00;;
39322;SDS011;25036;53.638;10.134;2023-07-02T05:53:45;12.57;;;4.83;;
39322;SDS011;25036;53.638;10.134;2023-07-02T05:54:46;12.57;;;5.07;;
39322;SDS011;25036;53.638;10.134;2023-07-02T05:55:46;13.37;;;5.50;;
39322;SDS011;25036;53.638;10.134;2023-07-02T05:56:47;11.57;;;4.97;;
39322;SDS011;25036;53.638;10.134;2023-07-02T05:57:47;10.83;;;5.27;;
39322;SDS011;25036;53.638;10.134;2023-07-02T05:58:48;11.40;;;4.30;;